createdAt,value
2018-06-03T00:01:09.769Z,12.00
2018-06-03T00:03:38.582Z,13.13
2018-06-03T00:06:07.346Z,11.90
2018-06-03T00:08:35.414Z,12.30
2018-06-03T00:11:04.950Z,13.17
2018-06-03T00:13:33.712Z,12.37
2018-06-03T00:16:01.729Z,13.43
2018-06-03T00:18:29.788Z,13.17
2018-06-03T00:21:09.679Z,14.10
2018-06-03T00:23:38.523Z,15.37
2018-06-03T00:26:06.810Z,15.80
2018-06-03T00:28:35.107Z,16.17
2018-06-03T00:31:03.386Z,16.07
2018-06-03T00:33:31.666Z,14.70
2018-06-03T00:36:11.953Z,14.17
2018-06-03T00:38:40.988Z,15.17
2018-06-03T00:41:09.264Z,14.00
2018-06-03T00:43:37.553Z,14.60
2018-06-03T00:46:06.589Z,14.20
2018-06-03T00:48:34.873Z,14.30
2018-06-03T00:51:03.139Z,14.00
2018-06-03T00:53:31.401Z,16.07
2018-06-03T00:55:59.657Z,13.87
2018-06-03T00:58:28.724Z,15.70
2018-06-03T01:00:57.008Z,16.70
2018-06-03T01:03:25.263Z,14.40
2018-06-03T01:05:53.524Z,13.47
2018-06-03T01:08:21.807Z,13.73
2018-06-03T01:10:50.104Z,15.33
2018-06-03T01:13:18.363Z,17.17
2018-06-03T01:15:46.695Z,18.90
2018-06-03T01:18:15.047Z,18.37
2018-06-03T01:20:43.805Z,17.47
2018-06-03T01:23:12.068Z,17.43
2018-06-03T01:25:41.078Z,18.80
2018-06-03T01:28:09.344Z,18.50
2018-06-03T01:30:37.656Z,16.53
2018-06-03T01:33:05.962Z,16.57
2018-06-03T01:35:34.210Z,16.83
2018-06-03T01:38:02.517Z,16.87
2018-06-03T01:40:30.794Z,15.33
2018-06-03T01:42:59.065Z,16.30
2018-06-03T01:45:27.309Z,14.60
2018-06-03T01:47:56.326Z,16.17
2018-06-03T01:50:24.601Z,16.17
2018-06-03T01:52:53.607Z,17.33
2018-06-03T01:55:21.884Z,16.23
2018-06-03T01:57:50.914Z,16.37
2018-06-03T02:00:19.177Z,15.27
2018-06-03T02:02:47.433Z,14.53
2018-06-03T02:05:16.476Z,15.33
2018-06-03T02:07:44.720Z,14.73
2018-06-03T02:10:12.985Z,18.17
2018-06-03T02:12:42.028Z,17.07
2018-06-03T02:15:10.304Z,16.80
2018-06-03T02:17:38.585Z,16.17
2018-06-03T02:20:06.844Z,18.60
2018-06-03T02:22:35.172Z,15.70
2018-06-03T02:25:03.413Z,17.43
2018-06-03T02:27:31.677Z,17.27
2018-06-03T02:29:59.940Z,17.33
2018-06-03T02:32:28.197Z,16.50
2018-06-03T02:34:56.487Z,17.37
2018-06-03T02:37:24.828Z,19.77
2018-06-03T02:39:53.100Z,20.17
2018-06-03T02:42:21.350Z,18.43
2018-06-03T02:44:50.380Z,18.80
2018-06-03T02:47:18.654Z,19.57
2018-06-03T02:49:46.939Z,17.70
2018-06-03T02:52:15.190Z,17.77
2018-06-03T02:54:44.213Z,16.93
2018-06-03T02:57:12.511Z,15.37
2018-06-03T02:59:40.769Z,17.90
2018-06-03T03:02:09.012Z,17.13
2018-06-03T03:04:38.060Z,17.57
2018-06-03T03:07:06.307Z,18.00
2018-06-03T03:09:35.366Z,18.17
2018-06-03T03:12:03.617Z,17.40
2018-06-03T03:14:31.868Z,16.40
2018-06-03T03:17:00.887Z,15.40
2018-06-03T03:19:29.154Z,15.07
2018-06-03T03:21:57.421Z,16.63
2018-06-03T03:24:26.432Z,16.50
2018-06-03T03:26:54.698Z,16.23
2018-06-03T03:29:23.816Z,17.80
2018-06-03T03:31:52.093Z,16.93
2018-06-03T03:34:21.116Z,16.60
2018-06-03T03:36:49.389Z,16.90
2018-06-03T03:39:17.658Z,15.90
2018-06-03T03:41:45.954Z,16.70
2018-06-03T03:44:14.221Z,15.07
2018-06-03T03:46:42.488Z,15.50
2018-06-03T03:49:11.547Z,17.40
2018-06-03T03:51:39.784Z,18.30
2018-06-03T03:54:08.058Z,17.77
2018-06-03T03:56:36.327Z,18.17
2018-06-03T03:59:05.364Z,17.67
2018-06-03T04:01:33.627Z,18.50
2018-06-03T04:04:02.656Z,17.83
2018-06-03T04:06:30.920Z,18.60
2018-06-03T04:08:59.217Z,17.63
2018-06-03T04:11:27.470Z,16.90
2018-06-03T04:13:55.730Z,17.53
2018-06-03T04:16:24.051Z,19.17
2018-06-03T04:18:52.333Z,21.33
2018-06-03T04:21:20.600Z,19.30
2018-06-03T04:23:48.864Z,18.30
2018-06-03T04:26:17.112Z,20.63
2018-06-03T04:28:45.356Z,19.67
2018-06-03T04:31:13.670Z,23.33
2018-06-03T04:33:41.911Z,21.33
2018-06-03T04:36:10.235Z,22.13
2018-06-03T04:38:38.479Z,21.80
2018-06-03T04:41:07.553Z,23.50
2018-06-03T04:43:35.837Z,23.53
2018-06-03T04:46:04.094Z,23.20
2018-06-03T04:48:33.127Z,22.17
2018-06-03T04:51:01.365Z,23.50
2018-06-03T04:53:30.400Z,22.80
2018-06-03T04:55:58.685Z,24.03
2018-06-03T04:58:26.972Z,23.17
2018-06-03T05:00:55.244Z,24.80
2018-06-03T05:03:23.516Z,25.73
2018-06-03T05:05:51.793Z,24.90
2018-06-03T05:08:20.812Z,24.03
2018-06-03T05:10:50.092Z,23.97
2018-06-03T05:13:18.366Z,24.10
2018-06-03T05:15:46.617Z,23.90
2018-06-03T05:18:15.663Z,24.07
2018-06-03T05:20:43.925Z,24.93
2018-06-03T05:23:12.188Z,23.63
2018-06-03T05:25:41.217Z,22.20
2018-06-03T05:28:09.488Z,22.50
2018-06-03T05:30:37.773Z,25.40
2018-06-03T05:33:06.039Z,26.63
2018-06-03T05:35:34.299Z,25.20
2018-06-03T05:38:03.336Z,27.47
2018-06-03T05:40:31.625Z,29.77
2018-06-03T05:43:00.436Z,29.97
2018-06-03T05:45:28.893Z,32.37
2018-06-03T05:47:57.156Z,31.37
2018-06-03T05:50:25.441Z,31.17
2018-06-03T05:52:53.730Z,32.40
2018-06-03T05:55:22.196Z,31.97
2018-06-03T05:57:50.492Z,35.23
2018-06-03T06:00:19.480Z,34.30
2018-06-03T06:02:47.736Z,35.57
2018-06-03T06:05:17.071Z,36.90
2018-06-03T06:07:46.097Z,37.73
2018-06-03T06:10:14.367Z,36.40
2018-06-03T06:12:42.653Z,37.20
2018-06-03T06:15:10.925Z,37.47
2018-06-03T06:17:39.296Z,33.23
2018-06-03T06:20:07.564Z,34.67
2018-06-03T06:22:35.832Z,34.50
2018-06-03T06:25:04.120Z,34.40
2018-06-03T06:27:32.401Z,35.30
2018-06-03T06:30:01.424Z,36.80
2018-06-03T06:32:29.688Z,35.27
2018-06-03T06:34:57.931Z,34.10
2018-06-03T06:37:26.210Z,38.60
2018-06-03T06:39:55.980Z,39.83
2018-06-03T06:42:24.240Z,37.80
2018-06-03T06:44:52.512Z,35.90
2018-06-03T06:47:21.516Z,36.43
2018-06-03T06:49:49.909Z,38.80
2018-06-03T06:52:18.946Z,37.60
2018-06-03T06:54:47.381Z,35.87
2018-06-03T06:57:15.688Z,35.27
2018-06-03T06:59:44.003Z,32.03
2018-06-03T07:02:12.313Z,28.87
2018-06-03T07:04:42.409Z,35.17
2018-06-03T07:07:10.694Z,30.83
2018-06-03T07:09:39.009Z,35.97
2018-06-03T07:12:08.052Z,37.87
2018-06-03T07:14:36.313Z,34.70
2018-06-03T07:17:04.664Z,31.27
2018-06-03T07:19:33.758Z,35.20
2018-06-03T07:22:02.070Z,34.40
2018-06-03T07:24:30.358Z,33.80
2018-06-03T07:26:58.666Z,31.40
2018-06-03T07:29:26.971Z,37.00
2018-06-03T07:31:55.289Z,35.57
2018-06-03T07:34:23.530Z,34.40
2018-06-03T07:36:51.796Z,35.13
2018-06-03T07:39:20.167Z,31.40
2018-06-03T07:41:48.475Z,25.70
2018-06-03T07:44:16.839Z,28.60
2018-06-03T07:46:45.164Z,29.30
2018-06-03T07:49:13.438Z,28.50
2018-06-03T07:51:41.700Z,30.87
2018-06-03T07:54:10.040Z,32.67
2018-06-03T07:56:38.326Z,30.70
2018-06-03T07:59:06.590Z,26.00
2018-06-03T08:01:34.856Z,27.97
2018-06-03T08:04:03.558Z,23.77
2018-06-03T08:06:31.939Z,63.20
2018-06-03T08:09:00.775Z,47.30
2018-06-03T08:11:29.228Z,36.33
2018-06-03T08:13:57.493Z,39.83
2018-06-03T08:16:25.795Z,36.83
2018-06-03T08:18:54.125Z,82.57
2018-06-03T08:21:22.456Z,45.60
2018-06-03T08:23:50.757Z,53.63
2018-06-03T08:26:19.317Z,44.87
2018-06-03T08:28:47.601Z,31.77
2018-06-03T08:31:15.872Z,31.53
2018-06-03T08:33:44.133Z,32.30
2018-06-03T08:36:13.175Z,32.23
2018-06-03T08:38:41.492Z,41.10
2018-06-03T08:41:09.781Z,34.67
2018-06-03T08:43:39.043Z,37.33
2018-06-03T08:46:07.781Z,31.53
2018-06-03T08:48:36.150Z,29.60
2018-06-03T08:51:05.913Z,32.47
2018-06-03T08:53:34.196Z,32.93
2018-06-03T08:56:02.463Z,30.90
2018-06-03T08:58:30.720Z,34.53
2018-06-03T09:00:59.777Z,32.93
2018-06-03T09:03:28.051Z,32.23
2018-06-03T09:05:56.360Z,32.27
2018-06-03T09:08:24.601Z,32.93
2018-06-03T09:10:52.876Z,32.73
2018-06-03T09:13:21.134Z,33.27
2018-06-03T09:15:49.591Z,29.73
2018-06-03T09:18:17.870Z,33.87
2018-06-03T09:20:46.124Z,33.30
2018-06-03T09:23:14.388Z,31.20
2018-06-03T09:25:42.629Z,30.93
2018-06-03T09:28:11.687Z,33.10
2018-06-03T09:30:39.993Z,32.97
2018-06-03T09:33:08.269Z,31.03
2018-06-03T09:35:36.524Z,30.87
2018-06-03T09:38:04.791Z,31.87
2018-06-03T09:40:33.073Z,33.87
2018-06-03T09:43:01.313Z,29.77
2018-06-03T09:45:31.360Z,31.50
2018-06-03T09:47:59.624Z,29.57
2018-06-03T09:50:27.891Z,30.17
2018-06-03T09:52:56.965Z,30.57
2018-06-03T09:55:25.212Z,28.10
2018-06-03T09:57:53.471Z,31.30
2018-06-03T10:00:21.765Z,30.80
2018-06-03T10:02:50.016Z,27.87
2018-06-03T10:05:19.052Z,28.50
2018-06-03T10:07:48.279Z,29.27
2018-06-03T10:10:16.558Z,29.60
2018-06-03T10:12:44.847Z,30.90
2018-06-03T10:15:13.110Z,29.47
2018-06-03T10:17:41.378Z,29.73
2018-06-03T10:20:09.757Z,29.30
2018-06-03T10:22:38.803Z,30.90
2018-06-03T10:25:07.103Z,28.63
2018-06-03T10:27:36.113Z,30.60
2018-06-03T10:30:04.380Z,30.47
2018-06-03T10:32:33.422Z,29.53
2018-06-03T10:35:01.666Z,29.60
2018-06-03T10:37:29.945Z,29.23
2018-06-03T10:39:59.014Z,28.47
2018-06-03T10:42:27.223Z,32.00
2018-06-03T10:44:55.508Z,28.47
2018-06-03T10:47:23.794Z,28.70
2018-06-03T10:52:27.419Z,30.30
2018-06-03T10:54:55.701Z,28.70
2018-06-03T10:57:23.970Z,30.27
2018-06-03T10:59:52.261Z,29.07
2018-06-03T11:02:20.507Z,30.10
2018-06-03T11:04:49.524Z,29.60
2018-06-03T11:07:17.835Z,27.50
2018-06-03T11:09:46.117Z,30.20
2018-06-03T11:12:14.414Z,31.87
2018-06-03T11:14:42.674Z,29.43
2018-06-03T11:17:10.949Z,28.93
2018-06-03T11:19:39.236Z,29.60
2018-06-03T11:22:07.663Z,28.97
2018-06-03T11:24:35.910Z,28.33
2018-06-03T11:27:04.182Z,29.23
2018-06-03T11:29:32.447Z,32.27
2018-06-03T11:32:00.696Z,32.30
2018-06-03T11:34:29.767Z,30.23
2018-06-03T11:36:58.061Z,30.30
2018-06-03T11:39:26.329Z,30.70
2018-06-03T11:41:54.629Z,31.30
2018-06-03T11:44:22.915Z,29.83
2018-06-03T11:46:51.991Z,29.07
2018-06-03T11:49:20.244Z,29.93
2018-06-03T11:51:48.550Z,30.50
2018-06-03T11:54:16.817Z,30.20
2018-06-03T11:56:56.885Z,28.43
2018-06-03T11:59:32.597Z,28.60
2018-06-03T12:02:00.958Z,29.33
2018-06-03T12:04:29.976Z,27.93
2018-06-03T12:06:58.244Z,29.00
2018-06-03T12:09:28.304Z,28.20
2018-06-03T12:11:56.604Z,27.83
2018-06-03T12:14:24.868Z,27.50
2018-06-03T12:16:55.889Z,27.00
2018-06-03T12:19:24.149Z,27.13
2018-06-03T12:21:52.399Z,30.10
2018-06-03T12:24:20.687Z,29.80
2018-06-03T12:26:48.973Z,31.13
2018-06-03T12:29:18.015Z,28.30
2018-06-03T12:31:46.273Z,24.27
2018-06-03T12:34:14.534Z,25.23
2018-06-03T12:36:43.608Z,27.73
2018-06-03T12:39:11.851Z,28.97
2018-06-03T12:41:40.104Z,27.30
2018-06-03T12:44:08.425Z,24.60
2018-06-03T12:46:36.806Z,27.33
2018-06-03T12:49:05.098Z,25.97
2018-06-03T12:51:33.380Z,27.37
2018-06-03T12:54:01.630Z,27.63
2018-06-03T12:56:30.054Z,27.87
2018-06-03T12:58:58.312Z,25.20
2018-06-03T13:01:26.657Z,25.30
2018-06-03T13:03:55.729Z,23.23
2018-06-03T13:06:24.047Z,25.17
2018-06-03T13:08:52.272Z,24.83
2018-06-03T13:11:20.572Z,24.00
2018-06-03T13:13:48.868Z,24.53
2018-06-03T13:16:17.896Z,24.43
2018-06-03T13:18:47.025Z,23.70
2018-06-03T13:21:15.326Z,25.37
2018-06-03T13:23:43.580Z,22.67
2018-06-03T13:26:11.859Z,22.50
2018-06-03T13:28:40.125Z,23.23
2018-06-03T13:31:08.407Z,22.67
2018-06-03T13:33:36.681Z,24.43
2018-06-03T13:36:04.952Z,23.70
2018-06-03T13:38:33.241Z,23.80
2018-06-03T13:41:01.500Z,24.13
2018-06-03T13:43:30.551Z,21.70
2018-06-03T13:45:58.854Z,21.53
2018-06-03T13:48:27.138Z,23.20
2018-06-03T13:50:55.402Z,22.07
2018-06-03T13:53:23.693Z,23.37
2018-06-03T13:55:52.288Z,23.07
2018-06-03T13:58:20.603Z,23.00
2018-06-03T14:00:49.625Z,20.80
2018-06-03T14:03:17.892Z,24.27
2018-06-03T14:05:46.217Z,21.80
2018-06-03T14:08:14.590Z,21.37
2018-06-03T14:10:42.864Z,21.77
2018-06-03T14:13:11.128Z,20.87
2018-06-03T14:15:39.440Z,22.80
2018-06-03T14:18:07.732Z,22.67
2018-06-03T14:20:36.122Z,21.07
2018-06-03T14:23:04.609Z,19.70
2018-06-03T14:25:33.660Z,22.40
2018-06-03T14:28:01.933Z,22.00
2018-06-03T14:30:30.207Z,21.63
2018-06-03T14:32:58.790Z,22.53
2018-06-03T14:35:27.785Z,21.67
2018-06-03T14:37:56.050Z,20.33
2018-06-03T14:40:24.374Z,19.80
2018-06-03T14:42:52.638Z,21.50
2018-06-03T14:45:20.924Z,18.33
2018-06-03T14:47:49.195Z,21.83
2018-06-03T14:50:17.459Z,18.47
2018-06-03T14:52:45.740Z,20.30
2018-06-03T14:55:14.776Z,19.13
2018-06-03T14:57:43.059Z,20.00
2018-06-03T15:00:12.343Z,19.00
2018-06-03T15:02:40.826Z,18.50
2018-06-03T15:05:09.408Z,20.20
2018-06-03T15:07:39.482Z,18.37
2018-06-03T15:10:41.401Z,20.60
2018-06-03T15:13:10.616Z,18.10
2018-06-03T15:15:39.942Z,17.63
2018-06-03T15:18:09.286Z,23.03
2018-06-03T15:20:39.750Z,18.03
2018-06-03T15:23:09.947Z,18.00
2018-06-03T15:25:39.446Z,17.03
2018-06-03T15:28:08.752Z,17.93
2018-06-03T15:30:38.031Z,15.80
2018-06-03T15:33:07.077Z,15.93
2018-06-03T15:35:36.204Z,20.53
2018-06-03T15:38:05.553Z,18.70
2018-06-03T15:40:35.441Z,22.93
2018-06-03T15:43:04.672Z,16.40
2018-06-03T15:45:34.979Z,17.83
2018-06-03T15:48:04.397Z,17.90
2018-06-03T15:50:33.674Z,16.90
2018-06-03T15:53:02.966Z,16.13
2018-06-03T15:55:32.441Z,18.47
2018-06-03T15:58:02.503Z,16.53
2018-06-03T16:00:31.846Z,15.43
2018-06-03T16:03:01.235Z,16.43
2018-06-03T16:05:30.467Z,14.77
2018-06-03T16:07:59.925Z,14.67
2018-06-03T16:10:29.145Z,13.63
2018-06-03T16:12:58.376Z,13.23
2018-06-03T16:15:28.820Z,12.83
2018-06-03T16:17:57.891Z,15.73
2018-06-03T16:20:27.726Z,12.50
2018-06-03T16:22:56.993Z,12.30
2018-06-03T16:25:26.287Z,12.87
2018-06-03T16:27:55.687Z,11.07
2018-06-03T16:30:25.096Z,11.80
2018-06-03T16:32:55.542Z,11.80
2018-06-03T16:35:25.356Z,11.20
2018-06-03T16:37:54.658Z,10.00
2018-06-03T16:40:24.015Z,10.47
2018-06-03T16:42:53.703Z,11.40
2018-06-03T16:45:23.009Z,11.37
2018-06-03T16:47:52.294Z,11.47
2018-06-03T16:50:21.566Z,12.57
2018-06-03T16:52:51.420Z,9.80
2018-06-03T16:55:20.733Z,9.10
2018-06-03T16:57:50.457Z,9.30
2018-06-03T17:00:20.667Z,9.27
2018-06-03T17:02:50.616Z,9.27
2018-06-03T17:05:19.925Z,9.30
2018-06-03T17:07:49.189Z,9.73
2018-06-03T17:10:18.530Z,8.67
2018-06-03T17:12:48.485Z,8.53
2018-06-03T17:15:17.731Z,9.47
2018-06-03T17:17:47.184Z,9.07
2018-06-03T17:20:16.499Z,8.93
2018-06-03T17:22:46.343Z,8.73
2018-06-03T17:25:15.709Z,8.03
2018-06-03T17:27:45.613Z,9.30
2018-06-03T17:30:14.952Z,8.70
2018-06-03T17:32:44.253Z,9.57
2018-06-03T17:35:13.632Z,8.33
2018-06-03T17:37:43.905Z,8.50
2018-06-03T17:40:13.463Z,8.43
2018-06-03T17:42:43.108Z,9.67
2018-06-03T17:45:13.269Z,10.23
2018-06-03T17:47:42.672Z,8.57
2018-06-03T17:50:11.951Z,8.37
2018-06-03T17:52:40.926Z,8.17
2018-06-03T17:55:10.093Z,8.80
2018-06-03T17:57:39.334Z,8.37
2018-06-03T18:00:08.692Z,8.70
2018-06-03T18:02:38.113Z,8.70
2018-06-03T18:05:07.397Z,9.43
2018-06-03T18:07:37.739Z,8.13
2018-06-03T18:10:07.004Z,9.03
2018-06-03T18:12:36.401Z,8.67
2018-06-03T18:15:05.644Z,9.10
2018-06-03T18:17:35.596Z,9.73
2018-06-03T18:20:05.181Z,10.63
2018-06-03T18:22:34.577Z,9.37
2018-06-03T18:25:03.452Z,9.97
2018-06-03T18:27:32.594Z,9.87
2018-06-03T18:30:03.546Z,9.10
2018-06-03T18:32:33.046Z,10.20
2018-06-03T18:35:02.309Z,10.07
2018-06-03T18:37:31.617Z,9.60
2018-06-03T18:40:00.964Z,10.67
2018-06-03T18:42:31.024Z,10.23
2018-06-03T18:45:01.697Z,9.70
2018-06-03T18:47:31.061Z,9.37
2018-06-03T18:50:00.281Z,9.40
2018-06-03T18:52:29.679Z,9.20
2018-06-03T18:54:59.020Z,8.60
2018-06-03T18:57:29.210Z,9.03
2018-06-03T19:00:00.430Z,8.23
2018-06-03T19:02:29.800Z,8.47
2018-06-03T19:04:59.008Z,7.97
2018-06-03T19:07:28.367Z,7.90
2018-06-03T19:09:57.635Z,9.20
2018-06-03T19:12:27.225Z,8.20
2018-06-03T19:14:56.705Z,8.63
2018-06-03T19:17:27.317Z,8.60
2018-06-03T19:19:56.566Z,8.80
2018-06-03T19:22:26.590Z,9.07
2018-06-03T19:24:57.928Z,8.63
2018-06-03T19:27:27.192Z,8.57
2018-06-03T19:29:56.450Z,7.40
2018-06-03T19:32:26.941Z,8.07
2018-06-03T19:34:58.511Z,7.47
2018-06-03T19:37:27.753Z,7.63
2018-06-03T19:39:57.116Z,8.03
2018-06-03T19:42:26.399Z,9.10
2018-06-03T19:44:55.640Z,8.90
2018-06-03T19:47:25.153Z,8.67
2018-06-03T19:49:54.387Z,9.10
2018-06-03T19:52:23.660Z,9.13
2018-06-03T19:54:52.910Z,9.03
2018-06-03T19:57:23.007Z,8.97
2018-06-03T19:59:52.280Z,9.37
2018-06-03T20:02:21.545Z,8.13
2018-06-03T20:04:50.811Z,8.30
2018-06-03T20:07:20.436Z,9.90
2018-06-03T20:09:49.690Z,8.63
2018-06-03T20:12:19.414Z,9.53
2018-06-03T20:14:48.777Z,10.70
2018-06-03T20:17:18.818Z,9.87
2018-06-03T20:19:48.126Z,8.97
2018-06-03T20:22:17.425Z,9.00
2018-06-03T20:24:46.820Z,9.13
2018-06-03T20:27:16.154Z,8.87
2018-06-03T20:29:45.563Z,11.07
2018-06-03T20:32:15.626Z,9.30
2018-06-03T20:34:44.988Z,10.30
2018-06-03T20:37:14.287Z,10.73
2018-06-03T20:39:43.658Z,10.47
2018-06-03T20:42:13.834Z,10.90
2018-06-03T20:44:44.251Z,11.47
2018-06-03T20:47:14.453Z,12.03
2018-06-03T20:49:43.727Z,11.87
2018-06-03T20:52:12.961Z,12.60
2018-06-03T20:54:42.448Z,11.03
2018-06-03T20:57:12.445Z,11.93
2018-06-03T20:59:41.859Z,11.20
2018-06-03T21:02:11.245Z,11.87
2018-06-03T21:04:40.813Z,11.30
2018-06-03T21:07:10.155Z,10.70
2018-06-03T21:09:39.417Z,11.07
2018-06-03T21:12:08.686Z,11.30
2018-06-03T21:14:37.956Z,11.10
2018-06-03T21:17:07.334Z,10.67
2018-06-03T21:19:36.611Z,9.47
2018-06-03T21:22:06.321Z,11.10
2018-06-03T21:24:35.721Z,11.27
2018-06-03T21:27:05.725Z,11.33
2018-06-03T21:29:35.318Z,11.67
2018-06-03T21:32:04.607Z,10.33
2018-06-03T21:34:34.609Z,9.63
2018-06-03T21:37:05.003Z,10.30
2018-06-03T21:39:34.253Z,10.17
2018-06-03T21:42:07.676Z,10.30
2018-06-03T21:44:36.997Z,9.00
2018-06-03T21:47:06.422Z,9.63
2018-06-03T21:49:35.648Z,10.07
2018-06-03T21:52:04.553Z,10.47
2018-06-03T21:54:33.832Z,11.27
2018-06-03T21:57:03.092Z,11.50
2018-06-03T21:59:32.455Z,9.77
2018-06-03T22:02:01.768Z,9.50
2018-06-03T22:04:30.992Z,10.80
2018-06-03T22:07:01.042Z,9.80
2018-06-03T22:09:30.286Z,9.33
2018-06-03T22:11:59.989Z,10.93
2018-06-03T22:14:29.226Z,9.97
2018-06-03T22:16:58.673Z,9.30
2018-06-03T22:19:28.013Z,9.47
2018-06-03T22:21:57.329Z,9.30
2018-06-03T22:24:26.641Z,10.10
2018-06-03T22:26:57.141Z,8.17
2018-06-03T22:29:27.824Z,9.20
2018-06-03T22:31:57.991Z,9.60
2018-06-03T22:34:28.549Z,9.00
2018-06-03T22:36:57.847Z,9.07
2018-06-03T22:39:27.189Z,9.40
2018-06-03T22:41:56.439Z,8.90
2018-06-03T22:44:25.844Z,9.50
2018-06-03T22:46:55.114Z,8.50
2018-06-03T22:49:25.075Z,8.90
2018-06-03T22:51:54.011Z,8.97
2018-06-03T22:54:22.835Z,10.43
2018-06-03T22:57:06.955Z,10.73
2018-06-03T22:59:36.335Z,10.77
2018-06-03T23:02:05.557Z,9.83
2018-06-03T23:04:34.787Z,11.50
2018-06-03T23:07:04.059Z,11.73
2018-06-03T23:09:33.564Z,10.87
2018-06-03T23:12:02.858Z,9.70
2018-06-03T23:14:32.076Z,10.00
2018-06-03T23:17:01.350Z,9.93
2018-06-03T23:19:30.616Z,10.20
2018-06-03T23:21:59.874Z,8.77
2018-06-03T23:24:29.073Z,9.57
2018-06-03T23:26:58.273Z,10.40
2018-06-03T23:29:27.529Z,10.87
2018-06-03T23:31:57.214Z,11.53
2018-06-03T23:34:26.448Z,10.47
2018-06-03T23:36:55.848Z,9.90
2018-06-03T23:39:25.091Z,9.33
2018-06-03T23:41:54.412Z,8.00
2018-06-03T23:44:23.659Z,9.33
2018-06-03T23:46:53.037Z,9.53
2018-06-03T23:49:22.227Z,9.17
2018-06-03T23:51:51.457Z,8.90
2018-06-03T23:54:20.742Z,9.67
2018-06-03T23:56:50.090Z,8.50
2018-06-03T23:59:19.310Z,9.40
